Portada
METAR-TAF:

METAR-TAF

Aeroports :

Marathon, Florida, Estats Units d'Amèrica

latitud: 24-43-33N, longitud: 081-02-52W, altitud: 2 m

Observació

L'informe es va fer fa 46 minuts, a les 01:53 UTC
Vent 5 kt del Est
Temperatura
Pressió 1019 hPa
Visibilitat: 16.1 km
Cel clar

METAR: KMTH 030153Z AUTO 09005KT 10SM CLR A3010 RMK AO2 SLP194

Hora: 21:39 (02:39 UTC)

Pronòstic

L'informe es va fer fa 3 hores i 19 minuts, a les 23:20 UTC
Pronòstic vàlid del 03 a les 00 UTC al 03 a les 24 UTC
Vent 6 kt del Est/Sud-Est
Visibilitat: 10 km
Escasses núvols a una alçada de 2500 ft
Cel ennuvolat a una alçada de 15000 ft

TAF: KMTH 022320Z 0300/0324 11006KT P6SM FEW025 BKN150

Observacions i pronòstics meteorològics de més de 4000 aeroports (METAR i TAF).

Les estacions disponibles són els punts grocs i vermells al mapa.

Posi el ratolí al punt desitjat per veure el nom de l'estació.

Feu clic per veure les observacions i els pronòstics meteorològics.

Per canviar el mapa: feu clic els botons verds amb una creu de color negre per apropar; al botó verd amb un guió per allunyar la imatge; o en les fletxes verdes per a mapes adjacents.


METAR-TAF: